createdAt,value
2023-05-09T00:03:37.296Z,20.6
2023-05-09T00:09:42.330Z,20.6
2023-05-09T00:15:48.298Z,20.6
2023-05-09T00:21:53.477Z,20.6
2023-05-09T00:27:58.785Z,20.6
2023-05-09T00:34:03.947Z,20.5
2023-05-09T00:40:09.163Z,20.5
2023-05-09T00:46:14.927Z,20.5
2023-05-09T00:52:19.690Z,20.5
2023-05-09T00:58:25.052Z,20.5
2023-05-09T01:04:30.320Z,20.4
2023-05-09T01:10:35.575Z,20.4
2023-05-09T01:16:41.527Z,20.4
2023-05-09T01:22:47.519Z,20.4
2023-05-09T01:28:52.876Z,20.4
2023-05-09T01:34:58.651Z,20.4
2023-05-09T01:41:04.099Z,20.3
2023-05-09T01:47:09.399Z,20.3
2023-05-09T01:53:15.001Z,20.3
2023-05-09T01:59:20.396Z,20.3
2023-05-09T02:05:25.756Z,20.3
2023-05-09T02:11:30.908Z,20.2
2023-05-09T02:17:36.491Z,20.2
2023-05-09T02:23:42.006Z,20.2
2023-05-09T02:29:47.445Z,20.2
2023-05-09T02:35:52.953Z,20.1
2023-05-09T02:41:57.580Z,20.1
2023-05-09T02:48:03.133Z,20.1
2023-05-09T02:54:11.304Z,20.1
2023-05-09T03:00:17.083Z,20.1
2023-05-09T03:06:22.851Z,20
2023-05-09T03:12:28.643Z,20
2023-05-09T03:18:34.067Z,20
2023-05-09T03:24:39.601Z,20
2023-05-09T03:30:44.961Z,20
2023-05-09T03:36:50.515Z,19.9
2023-05-09T03:42:56.508Z,19.9
2023-05-09T03:49:01.850Z,19.9
2023-05-09T03:55:07.277Z,19.9
2023-05-09T04:01:12.661Z,19.9
2023-05-09T04:07:17.977Z,19.9
2023-05-09T04:13:23.349Z,19.8
2023-05-09T04:19:29.747Z,19.8
2023-05-09T04:25:34.928Z,19.8
2023-05-09T04:31:40.962Z,19.8
2023-05-09T04:37:46.901Z,19.8
2023-05-09T04:43:52.029Z,19.8
2023-05-09T04:49:57.067Z,19.8
2023-05-09T04:56:02.371Z,19.8
2023-05-09T05:02:07.952Z,19.8
2023-05-09T05:08:13.305Z,19.8
2023-05-09T05:14:18.864Z,19.7
2023-05-09T05:20:24.450Z,19.8
2023-05-09T05:26:30.006Z,19.7
2023-05-09T05:32:35.472Z,19.8
2023-05-09T05:38:41.384Z,20.1
2023-05-09T05:44:46.982Z,20.7
2023-05-09T05:50:53.127Z,20.1
2023-05-09T05:56:57.935Z,21.5
2023-05-09T06:03:03.917Z,21.6
2023-05-09T06:09:10.110Z,20.6
2023-05-09T06:15:15.496Z,22.7
2023-05-09T06:21:21.178Z,25.7
2023-05-09T06:27:26.970Z,20.5
2023-05-09T06:33:32.534Z,20.6
2023-05-09T06:39:38.733Z,20.3
2023-05-09T06:45:44.515Z,21.3
2023-05-09T06:51:50.067Z,21.5
2023-05-09T06:57:55.495Z,22.1
2023-05-09T07:04:00.398Z,22.5
2023-05-09T07:10:11.032Z,20.8
2023-05-09T07:16:17.730Z,20.6
2023-05-09T07:22:23.302Z,20.3
2023-05-09T07:28:30.486Z,20.3
2023-05-09T07:34:35.902Z,20.5
2023-05-09T07:40:42.048Z,20.5
2023-05-09T07:46:47.261Z,20.4
2023-05-09T07:52:52.201Z,20.2
2023-05-09T07:58:58.336Z,20.3
2023-05-09T08:05:03.910Z,20.5
2023-05-09T08:11:09.700Z,20.5
2023-05-09T08:17:15.905Z,20.5
2023-05-09T08:23:21.666Z,20.4
2023-05-09T08:29:27.267Z,20.5
2023-05-09T08:35:33.257Z,20.5
2023-05-09T08:41:38.375Z,20.5
2023-05-09T08:47:43.822Z,20.5
2023-05-09T08:53:50.146Z,20.5
2023-05-09T08:59:55.513Z,20.5
2023-05-09T09:06:01.497Z,20.6
2023-05-09T09:12:06.701Z,20.6
2023-05-09T09:18:12.425Z,20.6
2023-05-09T09:24:18.017Z,20.6
2023-05-09T09:30:23.022Z,20.7
2023-05-09T09:36:28.752Z,20.7
2023-05-09T09:42:33.956Z,20.7
2023-05-09T09:48:39.895Z,20.8
2023-05-09T09:54:45.508Z,20.8
2023-05-09T10:00:50.899Z,20.8
2023-05-09T10:06:56.385Z,20.9
2023-05-09T10:13:02.219Z,20.9
2023-05-09T10:19:07.600Z,20.9
2023-05-09T10:25:13.679Z,21
2023-05-09T10:31:19.763Z,20.9
2023-05-09T10:37:25.482Z,21
2023-05-09T10:43:32.156Z,21.1
2023-05-09T10:49:39.176Z,21.1
2023-05-09T10:55:44.096Z,21.1
2023-05-09T11:01:49.273Z,21.1
2023-05-09T11:07:55.031Z,21.2
2023-05-09T11:14:00.973Z,21.2
2023-05-09T11:20:07.038Z,21.3
2023-05-09T11:26:13.013Z,21.3
2023-05-09T11:32:18.159Z,21.1
2023-05-09T11:38:23.944Z,21.1
2023-05-09T11:44:29.866Z,21.1
2023-05-09T11:50:35.628Z,21.2
2023-05-09T11:56:41.451Z,21.2
2023-05-09T12:02:47.460Z,21.3
2023-05-09T12:08:52.818Z,21.3
2023-05-09T12:14:58.342Z,21.3
2023-05-09T12:21:03.757Z,21.5
2023-05-09T12:27:08.864Z,21.5
2023-05-09T12:33:14.704Z,21.5
2023-05-09T12:39:20.218Z,21.5
2023-05-09T12:45:25.575Z,21.6
2023-05-09T12:51:31.376Z,21.6
2023-05-09T12:57:37.174Z,21.6
2023-05-09T13:03:42.732Z,21.6
2023-05-09T13:09:48.069Z,21.7
2023-05-09T13:15:53.863Z,21.7
2023-05-09T13:21:59.502Z,21.8
2023-05-09T13:28:06.375Z,21.8
2023-05-09T13:34:12.277Z,21.8
2023-05-09T13:40:17.922Z,21.8
2023-05-09T13:46:24.026Z,21.8
2023-05-09T13:52:29.965Z,21.8
2023-05-09T13:58:35.546Z,21.8
2023-05-09T14:04:40.556Z,21.9
2023-05-09T14:10:46.283Z,22
2023-05-09T14:16:51.703Z,22
2023-05-09T14:22:57.263Z,22
2023-05-09T14:29:02.590Z,22
2023-05-09T14:35:08.049Z,22.1
2023-05-09T14:41:14.137Z,22.1
2023-05-09T14:47:21.360Z,22.1
2023-05-09T14:53:26.962Z,22.1
2023-05-09T14:59:34.248Z,22.1
2023-05-09T15:05:42.024Z,22.2
2023-05-09T15:11:48.575Z,22.2
2023-05-09T15:17:54.736Z,22.2
2023-05-09T15:24:00.174Z,22.2
2023-05-09T15:30:05.933Z,22.2
2023-05-09T15:36:10.906Z,22.2
2023-05-09T15:42:16.646Z,22.2
2023-05-09T15:48:22.806Z,22.2
2023-05-09T15:54:28.609Z,22.3
2023-05-09T16:00:34.664Z,22.3
2023-05-09T16:06:40.407Z,22.3
2023-05-09T16:12:46.200Z,22.3
2023-05-09T16:18:51.700Z,22.3
2023-05-09T16:24:57.896Z,22.2
2023-05-09T16:31:03.693Z,22.3
2023-05-09T16:37:09.309Z,22.3
2023-05-09T16:43:14.673Z,22.3
2023-05-09T16:49:20.642Z,22.3
2023-05-09T16:55:26.582Z,22.3
2023-05-09T17:01:32.208Z,22.3
2023-05-09T17:07:37.981Z,22.3
2023-05-09T17:13:43.140Z,22.3
2023-05-09T17:19:48.671Z,22.3
2023-05-09T17:25:54.242Z,22.3
2023-05-09T17:31:59.791Z,22.3
2023-05-09T17:38:05.632Z,22.3
2023-05-09T17:44:11.446Z,22.3
2023-05-09T17:50:17.224Z,22.2
2023-05-09T17:56:22.775Z,22.2
2023-05-09T18:02:27.972Z,22.2
2023-05-09T18:08:33.913Z,22.2
2023-05-09T18:14:38.474Z,22.2
2023-05-09T18:20:44.041Z,22.2
2023-05-09T18:26:49.571Z,22.2
2023-05-09T18:32:55.145Z,22.2
2023-05-09T18:39:00.902Z,22.1
2023-05-09T18:45:06.564Z,22.1
2023-05-09T18:51:12.257Z,22.1
2023-05-09T18:57:17.918Z,22.1
2023-05-09T19:03:23.826Z,22.1
2023-05-09T19:09:29.635Z,22.1
2023-05-09T19:15:35.990Z,22.1
2023-05-09T19:21:41.332Z,22.1
2023-05-09T19:27:46.790Z,22.1
2023-05-09T19:33:52.707Z,22.1
2023-05-09T19:39:58.538Z,22.1
2023-05-09T19:46:04.521Z,22
2023-05-09T19:52:10.721Z,22
2023-05-09T19:58:17.692Z,22
2023-05-09T20:04:23.636Z,22
2023-05-09T20:10:29.079Z,22
2023-05-09T20:16:34.812Z,22
2023-05-09T20:22:39.996Z,22
2023-05-09T20:28:46.160Z,22
2023-05-09T20:34:52.115Z,21.9
2023-05-09T20:40:57.546Z,22
2023-05-09T20:47:03.267Z,21.9
2023-05-09T20:53:09.237Z,21.9
2023-05-09T20:59:15.037Z,21.9
2023-05-09T21:05:21.272Z,21.9
2023-05-09T21:11:26.780Z,21.9
2023-05-09T21:17:32.819Z,21.9
2023-05-09T21:23:38.995Z,21.8
2023-05-09T21:29:44.949Z,21.8
2023-05-09T21:35:50.774Z,21.8
2023-05-09T21:41:57.139Z,21.8
2023-05-09T21:48:02.968Z,21.8
2023-05-09T21:54:09.090Z,21.7
2023-05-09T22:00:15.349Z,21.7
2023-05-09T22:06:21.427Z,21.7
2023-05-09T22:12:27.424Z,21.7
2023-05-09T22:18:33.617Z,21.7
2023-05-09T22:24:39.184Z,21.7
2023-05-09T22:30:45.361Z,21.6
2023-05-09T22:36:51.352Z,21.6
2023-05-09T22:42:57.123Z,21.6
2023-05-09T22:49:03.152Z,21.6
2023-05-09T22:55:09.020Z,21.6
2023-05-09T23:01:15.066Z,21.6
2023-05-09T23:07:20.661Z,21.5
2023-05-09T23:13:26.856Z,21.5
2023-05-09T23:19:32.616Z,21.5
2023-05-09T23:25:37.886Z,21.5
2023-05-09T23:31:44.248Z,21.4
2023-05-09T23:37:50.022Z,21.4
2023-05-09T23:43:55.726Z,21.4
2023-05-09T23:50:01.184Z,21.4
2023-05-09T23:56:06.336Z,21.3
